Time;durP1;ratioP1;P1;durP2;ratioP2;P2;SDS_P1;SDS_P2;PMS_P1;PMS_P2;Temp;Humidity;BMP_temperature;BMP_pressure;BME280_temperature;BME280_humidity;BME280_pressure;Samples;Min_cycle;Max_cycle;Signal;HPM_P1;HPM_P2
2021/01/09 00:01:48;;;;;;;12.93;4.35;;;-0.40;99.90;;;;;;5041391;28;20040;-67
2021/01/09 00:04:14;;;;;;;11.65;4.82;;;-0.40;99.90;;;;;;5039953;28;20044;-67
2021/01/09 00:06:40;;;;;;;10.57;5.00;;;-0.40;99.90;;;;;;5024442;28;20032;-67
2021/01/09 00:09:06;;;;;;;11.52;4.80;;;-0.40;99.90;;;;;;5023596;28;20037;-67
2021/01/09 00:11:33;;;;;;;12.18;5.07;;;-0.40;99.90;;;;;;5024592;28;20025;-67
2021/01/09 00:13:59;;;;;;;11.10;4.45;;;-0.40;99.90;;;;;;5022799;28;20197;-67
2021/01/09 00:16:25;;;;;;;9.50;4.68;;;-0.50;99.90;;;;;;5042200;28;20912;-67
2021/01/09 00:18:51;;;;;;;10.05;5.15;;;-0.40;99.90;;;;;;5023966;28;20029;-67
2021/01/09 00:21:17;;;;;;;14.25;6.45;;;-0.50;99.90;;;;;;5052718;28;20109;-67
2021/01/09 00:23:43;;;;;;;13.38;5.35;;;-0.50;99.90;;;;;;5053186;28;20040;-67
2021/01/09 00:26:09;;;;;;;10.27;4.95;;;-0.50;99.90;;;;;;5049708;28;20301;-67
2021/01/09 00:28:34;;;;;;;13.50;5.43;;;-0.50;99.90;;;;;;5041825;28;20386;-67
2021/01/09 00:31:00;;;;;;;17.48;6.30;;;-0.50;99.90;;;;;;5037117;28;20059;-67
2021/01/09 00:33:25;;;;;;;11.90;6.38;;;-0.60;99.90;;;;;;5020532;28;20117;-67
2021/01/09 00:35:53;;;;;;;13.73;5.85;;;-0.50;99.90;;;;;;5023146;28;20048;-67
2021/01/09 00:38:18;;;;;;;18.17;7.18;;;-0.50;99.90;;;;;;5037656;28;20401;-66
2021/01/09 00:40:44;;;;;;;12.60;5.63;;;-0.60;99.90;;;;;;5038625;28;20033;-67
2021/01/09 00:43:10;;;;;;;11.75;5.78;;;-0.60;99.90;;;;;;5039430;28;20046;-67
2021/01/09 00:45:35;;;;;;;12.63;5.53;;;-0.60;99.90;;;;;;5038752;28;20112;-67
2021/01/09 00:48:01;;;;;;;13.07;5.15;;;-0.60;99.90;;;;;;5040564;28;20042;-67
2021/01/09 00:50:26;;;;;;;10.48;5.75;;;-0.60;99.90;;;;;;5019065;28;20033;-67
2021/01/09 00:52:52;;;;;;;12.10;4.80;;;-0.60;99.90;;;;;;5041115;28;20041;-67
2021/01/09 00:55:18;;;;;;;13.43;5.40;;;-0.60;99.90;;;;;;5038348;28;20029;-67
2021/01/09 00:57:43;;;;;;;16.73;5.78;;;-0.60;99.90;;;;;;5021768;28;20517;-67
2021/01/09 01:00:09;;;;;;;14.18;5.28;;;-0.60;99.90;;;;;;5021266;28;20064;-67
2021/01/09 01:02:34;;;;;;;12.02;5.30;;;-0.70;99.90;;;;;;5040782;28;20083;-67
2021/01/09 01:05:00;;;;;;;20.17;5.47;;;-0.60;99.90;;;;;;5037016;28;20631;-67
2021/01/09 01:07:25;;;;;;;15.45;4.82;;;-0.70;99.90;;;;;;5041073;28;20120;-67
2021/01/09 01:09:51;;;;;;;10.77;4.75;;;-0.70;99.90;;;;;;5039244;28;20060;-67
2021/01/09 01:12:16;;;;;;;14.95;5.60;;;-0.70;99.90;;;;;;5022248;28;20360;-67
2021/01/09 01:14:42;;;;;;;12.20;4.85;;;-0.70;99.90;;;;;;5039455;28;20021;-67
2021/01/09 01:17:07;;;;;;;10.77;5.55;;;-0.70;99.90;;;;;;5020471;28;20544;-67
2021/01/09 01:19:33;;;;;;;10.20;4.22;;;-0.60;99.90;;;;;;5040573;28;20037;-67
2021/01/09 01:21:59;;;;;;;10.80;4.85;;;-0.60;99.90;;;;;;5037679;28;20500;-67
2021/01/09 01:24:24;;;;;;;9.23;4.72;;;-0.60;99.90;;;;;;5040816;28;20041;-67
2021/01/09 01:26:50;;;;;;;12.13;4.95;;;-0.60;99.90;;;;;;5019813;28;20107;-67
2021/01/09 01:29:16;;;;;;;11.98;5.03;;;-0.70;99.90;;;;;;5021699;28;20041;-67
2021/01/09 01:31:41;;;;;;;13.32;4.80;;;-0.70;99.90;;;;;;5039120;28;20033;-67
2021/01/09 01:34:07;;;;;;;11.25;4.65;;;-0.60;99.90;;;;;;5038252;28;20559;-67
2021/01/09 01:36:32;;;;;;;9.48;4.85;;;-0.70;99.90;;;;;;5040140;28;20623;-69
2021/01/09 01:38:58;;;;;;;10.27;4.90;;;-0.70;99.90;;;;;;5037495;28;20033;-67
2021/01/09 01:41:23;;;;;;;11.15;4.30;;;-0.70;99.90;;;;;;5023181;28;20032;-67
2021/01/09 01:43:49;;;;;;;13.95;5.20;;;-0.70;99.90;;;;;;5020522;28;20032;-67
2021/01/09 01:46:15;;;;;;;8.98;4.63;;;-0.70;99.90;;;;;;5039650;28;20072;-67
2021/01/09 01:48:41;;;;;;;12.15;4.75;;;-0.70;99.90;;;;;;5021711;28;20029;-67
2021/01/09 01:51:09;;;;;;;11.10;4.53;;;-0.70;99.90;;;;;;5039267;28;20041;-67
2021/01/09 01:53:35;;;;;;;8.23;3.50;;;-0.70;99.90;;;;;;5022389;28;20032;-67
2021/01/09 01:56:00;;;;;;;8.93;4.55;;;-0.80;99.90;;;;;;5020168;28;20037;-66
2021/01/09 01:58:26;;;;;;;9.68;4.60;;;-0.80;99.90;;;;;;5041155;28;20040;-67
2021/01/09 02:00:51;;;;;;;9.30;4.13;;;-0.80;99.90;;;;;;5037531;28;20042;-67
2021/01/09 02:03:21;;;;;;;9.93;4.15;;;-0.80;99.90;;;;;;5022539;28;20125;-67
2021/01/09 02:06:01;;;;;;;11.20;4.07;;;-0.80;99.90;;;;;;5037916;28;20037;-67
2021/01/09 02:08:41;;;;;;;10.82;4.47;;;-0.90;99.90;;;;;;5034357;28;20033;-67
2021/01/09 02:11:19;;;;;;;8.18;4.15;;;-0.90;99.90;;;;;;5036473;28;20032;-67
2021/01/09 02:13:51;;;;;;;10.35;3.90;;;-0.90;99.90;;;;;;5039782;28;20595;-67
2021/01/09 02:16:17;;;;;;;7.50;3.50;;;-0.90;99.90;;;;;;5024357;28;20048;-67
2021/01/09 02:18:43;;;;;;;12.20;4.45;;;-0.90;99.90;;;;;;5038479;28;20112;-67
2021/01/09 02:21:27;;;;;;;8.85;4.18;;;-0.90;99.90;;;;;;5038065;28;20421;-67
2021/01/09 02:23:53;;;;;;;8.45;3.97;;;-0.90;99.90;;;;;;5018618;28;20498;-67
2021/01/09 02:26:19;;;;;;;8.25;4.35;;;-0.90;99.90;;;;;;5039666;28;20064;-67
2021/01/09 02:28:44;;;;;;;6.65;3.50;;;-0.90;99.90;;;;;;5037787;28;20052;-67
2021/01/09 02:31:12;;;;;;;11.50;4.18;;;-0.90;99.90;;;;;;5037997;28;20029;-66
2021/01/09 02:33:39;;;;;;;7.55;3.88;;;-0.90;99.90;;;;;;5021147;28;20025;-67
2021/01/09 02:36:07;;;;;;;11.45;3.92;;;-0.90;99.90;;;;;;5037165;28;20041;-67
2021/01/09 02:38:32;;;;;;;8.73;3.78;;;-1.00;99.90;;;;;;5023209;28;20078;-67
2021/01/09 02:41:00;;;;;;;8.68;4.05;;;-1.00;99.90;;;;;;5040144;28;20398;-67
2021/01/09 02:43:27;;;;;;;7.70;3.67;;;-1.00;99.90;;;;;;5026692;28;20067;-66
2021/01/09 02:45:52;;;;;;;7.85;3.45;;;-1.00;99.90;;;;;;5018115;28;20506;-67
2021/01/09 02:48:18;;;;;;;9.15;4.30;;;-1.00;99.90;;;;;;5026105;28;20040;-67
2021/01/09 02:50:43;;;;;;;8.77;4.32;;;-1.00;99.90;;;;;;5041704;28;20040;-67
2021/01/09 02:53:09;;;;;;;6.80;3.58;;;-1.10;99.90;;;;;;5041699;28;20045;-67
2021/01/09 02:55:34;;;;;;;9.63;3.80;;;-1.10;99.90;;;;;;5042810;28;20592;-67
2021/01/09 02:58:00;;;;;;;13.90;4.43;;;-1.10;99.90;;;;;;5022718;28;20175;-67
2021/01/09 03:00:25;;;;;;;9.30;3.67;;;-1.10;99.90;;;;;;5045295;28;20056;-67
2021/01/09 03:02:51;;;;;;;8.57;3.80;;;-1.10;99.90;;;;;;5037317;28;20047;-66
2021/01/09 03:05:16;;;;;;;9.90;4.43;;;-1.10;99.90;;;;;;5025861;28;20473;-67
2021/01/09 03:07:42;;;;;;;8.27;3.92;;;-1.10;99.90;;;;;;5042444;28;20090;-67
2021/01/09 03:10:07;;;;;;;8.20;4.00;;;-1.20;99.90;;;;;;5023839;28;20029;-67
2021/01/09 03:12:33;;;;;;;10.15;3.58;;;-1.10;99.90;;;;;;5042610;28;20025;-67
2021/01/09 03:14:59;;;;;;;9.98;4.00;;;-1.20;99.90;;;;;;5040022;28;20034;-67
2021/01/09 03:17:25;;;;;;;6.72;3.30;;;-1.20;99.90;;;;;;5043142;28;20075;-67
2021/01/09 03:19:50;;;;;;;11.63;4.00;;;-1.20;99.90;;;;;;5036230;28;20049;-67
2021/01/09 03:22:16;;;;;;;7.82;4.20;;;-1.20;99.90;;;;;;5042321;28;20032;-67
2021/01/09 03:24:41;;;;;;;7.25;3.47;;;-1.20;99.90;;;;;;5041064;28;20099;-67
2021/01/09 03:27:07;;;;;;;7.82;3.58;;;-1.20;99.90;;;;;;5023059;28;20040;-67
2021/01/09 03:29:32;;;;;;;7.55;3.75;;;-1.30;99.90;;;;;;5042744;28;20180;-67
2021/01/09 03:31:58;;;;;;;9.88;3.90;;;-1.30;99.90;;;;;;5022224;28;20033;-69
2021/01/09 03:34:23;;;;;;;10.77;3.30;;;-1.30;99.90;;;;;;5043040;28;20221;-67
2021/01/09 03:36:49;;;;;;;6.93;3.72;;;-1.30;99.90;;;;;;5035672;28;20037;-67
2021/01/09 03:39:14;;;;;;;9.02;3.83;;;-1.30;99.90;;;;;;5041795;28;20029;-67
2021/01/09 03:41:40;;;;;;;9.57;4.13;;;-1.30;99.90;;;;;;5040915;28;20124;-67
2021/01/09 03:44:06;;;;;;;7.22;3.08;;;-1.30;99.90;;;;;;5023009;28;20087;-67
2021/01/09 03:46:31;;;;;;;8.07;3.35;;;-1.30;99.90;;;;;;5041811;28;20029;-67
2021/01/09 03:48:57;;;;;;;7.57;3.15;;;-1.10;99.90;;;;;;5021957;28;20112;-67
2021/01/09 03:51:22;;;;;;;11.15;3.95;;;-0.80;99.90;;;;;;5042208;28;20033;-66
2021/01/09 03:53:48;;;;;;;9.82;3.45;;;-0.70;99.90;;;;;;5035599;28;20040;-67
2021/01/09 03:56:13;;;;;;;7.25;3.78;;;-0.70;99.90;;;;;;5041849;28;20040;-67
2021/01/09 03:58:39;;;;;;;7.35;3.65;;;-0.70;99.90;;;;;;5040359;28;20371;-67
2021/01/09 04:01:04;;;;;;;5.18;2.85;;;-0.70;99.90;;;;;;5022938;28;20521;-67
2021/01/09 04:03:30;;;;;;;5.97;3.25;;;-0.80;99.90;;;;;;5023470;28;20478;-67
2021/01/09 04:05:56;;;;;;;5.82;3.15;;;-0.90;99.90;;;;;;5039544;28;20029;-67
2021/01/09 04:08:22;;;;;;;5.72;3.10;;;-1.00;99.90;;;;;;5024103;28;20504;-67
2021/01/09 04:10:47;;;;;;;9.68;2.92;;;-1.00;99.90;;;;;;5035291;28;20029;-67
2021/01/09 04:13:13;;;;;;;5.72;2.80;;;-1.10;99.90;;;;;;5041449;28;20029;-67
2021/01/09 04:15:38;;;;;;;6.13;3.05;;;-1.20;99.90;;;;;;5039625;28;20405;-67
2021/01/09 04:18:04;;;;;;;6.38;3.47;;;-1.20;99.90;;;;;;5040667;28;20063;-67
2021/01/09 04:20:30;;;;;;;8.23;3.15;;;-1.30;99.90;;;;;;5022868;28;20294;-67
2021/01/09 04:22:55;;;;;;;7.30;3.53;;;-1.30;99.90;;;;;;5039510;28;20389;-67
2021/01/09 04:25:21;;;;;;;7.00;3.33;;;-1.30;99.90;;;;;;5043185;28;20036;-67
2021/01/09 04:27:46;;;;;;;6.45;3.40;;;-1.40;99.90;;;;;;5035788;28;20498;-69
2021/01/09 04:30:13;;;;;;;7.25;3.10;;;-1.40;99.90;;;;;;5042131;28;20033;-67
2021/01/09 04:32:38;;;;;;;6.13;2.90;;;-1.40;99.90;;;;;;5039828;28;20045;-67
2021/01/09 04:35:05;;;;;;;6.32;2.63;;;-1.50;99.90;;;;;;5040930;28;20069;-67
2021/01/09 04:37:31;;;;;;;7.15;3.30;;;-1.40;99.90;;;;;;5022507;28;20490;-67
2021/01/09 04:39:57;;;;;;;5.18;3.00;;;-1.50;99.90;;;;;;5022134;28;20075;-67
2021/01/09 04:42:22;;;;;;;5.18;3.13;;;-1.50;99.90;;;;;;5041469;28;20041;-67
2021/01/09 04:44:48;;;;;;;5.75;2.80;;;-1.50;99.90;;;;;;5038932;28;20040;-67
2021/01/09 04:47:15;;;;;;;7.47;3.15;;;-1.50;99.90;;;;;;5024079;28;20067;-67
2021/01/09 04:49:41;;;;;;;6.70;3.05;;;-1.50;99.90;;;;;;5039693;28;20042;-67
2021/01/09 04:52:09;;;;;;;5.68;2.92;;;-1.50;99.90;;;;;;5041551;28;20029;-67
2021/01/09 04:54:36;;;;;;;7.40;3.10;;;-1.60;99.90;;;;;;5041701;28;20033;-67
2021/01/09 04:57:01;;;;;;;6.80;3.28;;;-1.50;99.90;;;;;;5044832;28;20029;-67
2021/01/09 04:59:27;;;;;;;6.10;2.95;;;-1.60;99.90;;;;;;5038561;28;20552;-67
2021/01/09 05:01:53;;;;;;;8.13;2.95;;;-1.60;99.90;;;;;;5034317;28;20040;-67
2021/01/09 05:04:20;;;;;;;5.97;2.78;;;-1.60;99.90;;;;;;5023108;28;20389;-67
2021/01/09 05:06:46;;;;;;;4.88;2.75;;;-1.60;99.90;;;;;;5017717;28;20469;-67
2021/01/09 05:09:13;;;;;;;6.22;3.28;;;-1.60;99.90;;;;;;5022947;28;20043;-67
2021/01/09 05:11:41;;;;;;;5.20;3.05;;;-1.60;99.90;;;;;;5039018;28;20040;-67
2021/01/09 05:14:08;;;;;;;6.22;3.17;;;-1.60;99.90;;;;;;5039888;28;20029;-67
2021/01/09 05:16:35;;;;;;;6.95;2.75;;;-1.60;99.90;;;;;;5039080;28;20052;-67
2021/01/09 05:19:02;;;;;;;6.35;2.97;;;-1.60;99.90;;;;;;5039135;28;20108;-67
2021/01/09 05:21:30;;;;;;;9.75;3.83;;;-1.60;99.90;;;;;;5074487;23;20550;-61
2021/01/09 05:24:04;;;;;;;4.88;2.80;;;-1.60;99.90;;;;;;5056603;28;20032;-61
2021/01/09 05:26:30;;;;;;;4.25;2.47;;;-1.60;99.90;;;;;;5059119;28;20045;-59
2021/01/09 05:28:59;;;;;;;5.28;2.97;;;-1.60;99.90;;;;;;5059263;28;20052;-60
2021/01/09 05:31:26;;;;;;;4.85;3.05;;;-1.60;99.90;;;;;;5058275;28;20060;-60
2021/01/09 05:33:53;;;;;;;5.60;2.92;;;-1.60;99.90;;;;;;5058010;28;20081;-59
2021/01/09 05:36:19;;;;;;;6.43;2.47;;;-1.60;99.90;;;;;;5057507;28;20397;-59
2021/01/09 05:38:46;;;;;;;5.50;2.58;;;-1.60;99.90;;;;;;5056897;28;20040;-60
2021/01/09 05:41:15;;;;;;;10.07;3.00;;;-1.70;99.90;;;;;;5056287;28;20025;-60
2021/01/09 05:43:42;;;;;;;6.10;2.75;;;-1.60;99.90;;;;;;5057026;28;20041;-60
2021/01/09 05:46:08;;;;;;;6.82;3.03;;;-1.70;99.90;;;;;;5058351;28;20039;-61
2021/01/09 05:48:36;;;;;;;6.35;2.97;;;-1.70;99.90;;;;;;5056359;28;20044;-60
2021/01/09 05:51:05;;;;;;;5.25;2.60;;;-1.70;99.90;;;;;;5057962;28;20025;-60
2021/01/09 05:53:40;;;;;;;5.93;3.13;;;-1.70;99.90;;;;;;5058235;28;20103;-59
2021/01/09 05:56:07;;;;;;;5.22;2.70;;;-1.70;99.90;;;;;;5057544;28;20041;-60
2021/01/09 05:58:34;;;;;;;5.93;2.78;;;-1.70;99.90;;;;;;5059406;28;20036;-60
2021/01/09 06:01:05;;;;;;;7.18;3.45;;;-1.70;99.90;;;;;;5057896;28;20055;-60
2021/01/09 06:03:42;;;;;;;5.95;2.88;;;-1.70;99.90;;;;;;5059120;28;20036;-62
2021/01/09 06:06:25;;;;;;;6.93;3.03;;;-1.70;99.90;;;;;;5057018;28;20397;-60
2021/01/09 06:09:07;;;;;;;7.75;2.70;;;-1.80;99.90;;;;;;5056771;28;20377;-60
2021/01/09 06:11:38;;;;;;;8.13;3.25;;;-1.80;99.90;;;;;;5059383;28;20048;-60
2021/01/09 06:14:09;;;;;;;6.38;2.97;;;-1.70;99.90;;;;;;5057358;28;20427;-59
2021/01/09 06:16:43;;;;;;;8.80;4.25;;;-1.70;99.90;;;;;;5057868;28;20033;-60
2021/01/09 06:19:10;;;;;;;5.45;2.85;;;-1.80;99.90;;;;;;5056658;28;20453;-58
2021/01/09 06:21:36;;;;;;;9.15;3.00;;;-1.80;99.90;;;;;;5059022;28;20044;-59
2021/01/09 06:24:05;;;;;;;4.55;2.70;;;-1.80;99.90;;;;;;5057794;28;20101;-59
2021/01/09 06:26:31;;;;;;;6.85;3.17;;;-1.80;99.90;;;;;;5058276;28;20397;-60
2021/01/09 06:29:06;;;;;;;5.03;2.47;;;-1.80;99.90;;;;;;5058342;28;20603;-59
2021/01/09 06:31:33;;;;;;;6.70;2.85;;;-1.80;99.90;;;;;;5056960;28;20041;-59
2021/01/09 06:34:02;;;;;;;4.63;2.65;;;-1.80;99.90;;;;;;5058093;28;20033;-59
2021/01/09 06:36:27;;;;;;;6.38;2.63;;;-1.80;99.90;;;;;;5058090;28;20033;-59
2021/01/09 06:38:57;;;;;;;5.78;2.50;;;-1.80;99.90;;;;;;5058644;28;20082;-60
2021/01/09 06:41:24;;;;;;;6.55;3.00;;;-1.80;99.90;;;;;;5057525;28;20087;-62
2021/01/09 06:43:54;;;;;;;5.35;2.60;;;-1.80;99.90;;;;;;5058886;28;20059;-59
2021/01/09 06:46:36;;;;;;;7.83;3.43;;;-1.80;99.90;;;;;;5056889;28;20413;-59
2021/01/09 06:49:02;;;;;;;7.03;2.60;;;-1.80;99.90;;;;;;5057583;28;20036;-61
2021/01/09 06:51:38;;;;;;;6.35;2.90;;;-1.80;99.90;;;;;;5058236;28;20079;-60
2021/01/09 06:54:15;;;;;;;7.38;2.92;;;-1.80;99.90;;;;;;5056926;28;20128;-58
2021/01/09 06:56:46;;;;;;;6.18;2.63;;;-1.90;99.90;;;;;;5055983;28;20119;-60
2021/01/09 06:59:30;;;;;;;6.43;2.95;;;-1.90;99.90;;;;;;5056351;28;20037;-60
2021/01/09 07:02:09;;;;;;;4.97;2.88;;;-1.90;99.90;;;;;;5056047;28;20092;-59
2021/01/09 07:05:05;;;;;;;5.47;2.60;;;-1.90;99.90;;;;;;5058959;28;20033;-60
2021/01/09 07:07:53;;;;;;;7.22;2.72;;;-1.90;99.90;;;;;;5044836;28;20098;-60
2021/01/09 07:10:28;;;;;;;5.13;2.85;;;-1.90;99.90;;;;;;5060446;28;20276;-60
2021/01/09 07:12:55;;;;;;;5.10;2.60;;;-1.90;99.90;;;;;;5057815;28;20543;-59
2021/01/09 07:15:21;;;;;;;7.97;2.63;;;-1.90;99.90;;;;;;5058090;28;20032;-59
2021/01/09 07:17:52;;;;;;;4.90;2.60;;;-1.90;99.90;;;;;;5057009;28;20549;-60
2021/01/09 07:20:19;;;;;;;;;;;-1.90;99.90;;;;;;5057326;28;20049;-60
2021/01/09 07:22:48;;;;;;;11.07;3.30;;;-1.90;99.90;;;;;;5056978;28;19913;-59
2021/01/09 07:25:22;;;;;;;6.93;2.65;;;-1.90;99.90;;;;;;5060540;28;20086;-62
2021/01/09 07:27:48;;;;;;;4.80;2.60;;;-1.90;99.90;;;;;;5059777;28;20074;-59
2021/01/09 07:30:18;;;;;;;9.27;3.38;;;-1.90;99.90;;;;;;5058124;28;20041;-59
2021/01/09 07:32:52;;;;;;;5.57;2.63;;;-1.90;99.90;;;;;;5061268;28;20036;-58
2021/01/09 07:35:26;;;;;;;6.20;2.70;;;-1.90;99.90;;;;;;5060475;28;20048;-60
2021/01/09 07:37:56;;;;;;;6.80;3.38;;;-1.90;99.90;;;;;;5061628;28;20085;-60
2021/01/09 07:40:22;;;;;;;8.27;2.50;;;-1.90;99.90;;;;;;5063419;28;20032;-60
2021/01/09 07:42:49;;;;;;;5.43;2.50;;;-1.90;99.90;;;;;;5069348;28;20428;-58
2021/01/09 07:45:18;;;;;;;5.25;2.85;;;-1.90;99.90;;;;;;5062655;28;20025;-60
2021/01/09 07:47:46;;;;;;;6.43;2.55;;;-1.90;99.90;;;;;;5070885;28;20396;-62
2021/01/09 07:50:14;;;;;;;5.80;2.80;;;-1.80;99.90;;;;;;5070277;28;20111;-60
2021/01/09 07:52:40;;;;;;;8.00;2.78;;;-1.90;99.90;;;;;;5070701;28;20060;-59
2021/01/09 07:55:07;;;;;;;6.13;3.00;;;-1.80;99.90;;;;;;5070537;28;20029;-59
2021/01/09 07:57:34;;;;;;;5.18;2.50;;;-1.80;99.90;;;;;;5070834;28;20481;-60
2021/01/09 08:00:03;;;;;;;7.57;2.60;;;-1.80;99.90;;;;;;5070617;28;20033;-59
2021/01/09 08:02:30;;;;;;;4.55;3.05;;;-1.80;99.90;;;;;;5068835;28;20040;-60
2021/01/09 08:05:09;;;;;;;5.85;2.30;;;-1.80;99.90;;;;;;5064267;28;20033;-60
2021/01/09 08:07:39;;;;;;;5.28;2.65;;;-1.80;99.90;;;;;;5058971;28;20033;-60
2021/01/09 08:10:33;;;;;;;5.00;2.25;;;-1.80;99.90;;;;;;5064762;28;20032;-61
2021/01/09 08:13:07;;;;;;;4.68;2.50;;;-1.80;99.90;;;;;;5061456;28;20521;-59
2021/01/09 08:15:37;;;;;;;7.70;2.65;;;-1.70;99.90;;;;;;5058224;28;20036;-59
2021/01/09 08:18:04;;;;;;;7.88;2.42;;;-1.70;99.90;;;;;;5065566;28;20401;-59
2021/01/09 08:20:31;;;;;;;4.07;2.20;;;-1.70;99.90;;;;;;5066963;28;20040;-59
2021/01/09 08:23:01;;;;;;;5.35;2.45;;;-1.60;99.90;;;;;;5063413;28;20111;-61
2021/01/09 08:25:29;;;;;;;4.43;2.15;;;-1.60;99.90;;;;;;5070096;28;20076;-62
2021/01/09 08:27:59;;;;;;;6.28;2.63;;;-1.40;99.90;;;;;;5067010;28;20024;-59
2021/01/09 08:30:35;;;;;;;4.72;2.83;;;-1.40;99.90;;;;;;5064538;28;20029;-59
2021/01/09 08:33:08;;;;;;;5.55;2.15;;;-1.30;99.90;;;;;;5064680;28;20037;-60
2021/01/09 08:35:40;;;;;;;4.63;2.30;;;-1.10;99.90;;;;;;5060094;28;20040;-60
2021/01/09 08:38:06;;;;;;;4.78;2.45;;;-1.00;99.90;;;;;;5064643;28;20484;-59
2021/01/09 08:40:32;;;;;;;6.20;2.50;;;-0.90;99.90;;;;;;5062789;28;20025;-60
2021/01/09 08:43:03;;;;;;;5.35;2.22;;;-0.80;99.90;;;;;;5065309;28;20039;-60
2021/01/09 08:45:35;;;;;;;;;;;-0.70;99.90;;;;;;5067166;28;20040;-59
2021/01/09 08:48:02;;;;;;;6.38;2.85;;;-0.60;99.90;;;;;;5065037;28;19921;-60
2021/01/09 08:50:29;;;;;;;6.53;2.80;;;-0.40;99.90;;;;;;5065538;28;20029;-60
2021/01/09 08:52:59;;;;;;;5.25;3.33;;;-0.30;99.90;;;;;;5064738;28;20551;-60
2021/01/09 08:55:27;;;;;;;6.28;2.13;;;-0.20;99.90;;;;;;5066116;28;20409;-60
2021/01/09 08:57:53;;;;;;;8.27;2.80;;;-0.20;99.90;;;;;;5061221;28;20033;-60
2021/01/09 09:00:18;;;;;;;5.13;2.40;;;-0.10;99.90;;;;;;5067280;28;20038;-60
2021/01/09 09:02:46;;;;;;;7.05;2.15;;;-0.10;99.90;;;;;;5061110;28;20033;-60
2021/01/09 09:05:12;;;;;;;6.75;2.80;;;0.00;99.90;;;;;;5065510;28;20045;-60
2021/01/09 09:07:41;;;;;;;5.25;2.60;;;0.00;99.90;;;;;;5065556;28;20056;-61
2021/01/09 09:10:07;;;;;;;7.75;2.40;;;0.10;99.90;;;;;;5064707;28;20584;-61
2021/01/09 09:12:33;;;;;;;8.30;2.75;;;0.20;99.90;;;;;;5063740;28;20509;-60
2021/01/09 09:15:00;;;;;;;7.88;2.97;;;0.30;99.90;;;;;;5067432;28;20029;-61
2021/01/09 09:17:25;;;;;;;6.38;2.60;;;0.40;99.90;;;;;;5066225;28;20048;-60
2021/01/09 09:19:51;;;;;;;6.55;2.90;;;0.40;99.90;;;;;;5060588;28;20055;-59
2021/01/09 09:22:28;;;;;;;7.40;3.25;;;0.50;99.90;;;;;;5064765;28;20044;-59
2021/01/09 09:24:54;;;;;;;7.63;2.60;;;0.50;99.90;;;;;;5064193;28;20040;-59
2021/01/09 09:27:30;;;;;;;5.95;2.92;;;0.60;99.90;;;;;;5066709;28;20103;-60
2021/01/09 09:30:05;;;;;;;6.00;2.75;;;0.60;99.90;;;;;;5063863;28;20030;-62
2021/01/09 09:32:31;;;;;;;6.10;2.92;;;0.70;99.90;;;;;;5064005;28;20028;-60
2021/01/09 09:34:56;;;;;;;5.75;2.75;;;0.70;99.90;;;;;;5063658;28;20492;-60
2021/01/09 09:37:34;;;;;;;6.70;2.60;;;0.80;99.90;;;;;;5056699;28;20474;-60
2021/01/09 09:40:00;;;;;;;5.82;2.92;;;0.80;99.90;;;;;;5058434;28;20824;-61
2021/01/09 09:42:26;;;;;;;5.30;2.38;;;0.80;99.90;;;;;;5053910;28;20032;-59
2021/01/09 09:44:52;;;;;;;6.95;2.10;;;0.80;99.90;;;;;;5056466;28;20045;-61
2021/01/09 09:47:26;;;;;;;7.18;2.45;;;0.80;99.90;;;;;;5057592;28;20044;-60
2021/01/09 09:49:52;;;;;;;6.55;2.40;;;0.80;99.90;;;;;;5055201;28;20086;-60
2021/01/09 09:52:19;;;;;;;3.83;2.28;;;0.80;99.90;;;;;;5061826;28;20490;-61
2021/01/09 09:54:45;;;;;;;8.35;2.95;;;0.90;99.90;;;;;;5058159;28;20029;-58
2021/01/09 09:57:23;;;;;;;9.18;2.60;;;1.00;99.90;;;;;;5056464;28;20098;-60
2021/01/09 10:00:12;;;;;;;6.03;2.53;;;1.10;99.90;;;;;;5059448;28;20485;-61
2021/01/09 10:02:54;;;;;;;4.50;2.40;;;1.20;99.90;;;;;;5046856;28;20086;-61
2021/01/09 10:05:21;;;;;;;8.93;3.53;;;1.30;99.90;;;;;;5055297;28;20037;-61
2021/01/09 10:07:46;;;;;;;7.32;3.13;;;1.40;99.90;;;;;;5061459;28;20495;-61
2021/01/09 10:10:20;;;;;;;9.40;3.28;;;1.50;99.90;;;;;;5055065;28;20036;-60
2021/01/09 10:12:56;;;;;;;7.95;3.05;;;1.50;99.90;;;;;;5058094;28;20033;-59
2021/01/09 10:15:22;;;;;;;6.90;3.30;;;1.50;99.90;;;;;;5053681;28;20685;-68
2021/01/09 10:17:51;;;;;;;7.85;2.80;;;1.50;99.90;;;;;;5057231;28;20116;-60
2021/01/09 10:20:17;;;;;;;11.15;3.47;;;1.60;99.90;;;;;;5058617;28;20425;-62
2021/01/09 10:22:42;;;;;;;9.75;4.25;;;1.60;99.90;;;;;;5058103;28;20091;-60
2021/01/09 10:25:08;;;;;;;7.88;2.85;;;1.70;99.90;;;;;;5056251;28;20459;-60
2021/01/09 10:27:34;;;;;;;14.80;3.20;;;1.80;99.90;;;;;;5058769;28;20036;-60
2021/01/09 10:29:59;;;;;;;9.80;2.85;;;1.90;99.90;;;;;;5057264;28;20847;-60
2021/01/09 10:32:25;;;;;;;8.45;2.83;;;1.90;99.90;;;;;;5058600;28;20086;-66
2021/01/09 10:34:50;;;;;;;7.30;3.05;;;1.90;99.90;;;;;;5058886;28;20044;-62
2021/01/09 10:37:16;;;;;;;8.65;3.00;;;2.00;99.90;;;;;;5061575;28;20051;-61
2021/01/09 10:39:41;;;;;;;14.18;3.80;;;2.10;99.90;;;;;;5059505;28;20512;-60
2021/01/09 10:42:07;;;;;;;8.82;3.50;;;2.10;99.90;;;;;;5060043;28;20025;-60
2021/01/09 10:44:32;;;;;;;7.53;2.50;;;2.20;99.90;;;;;;5062664;28;20033;-61
2021/01/09 10:46:58;;;;;;;4.63;2.20;;;2.20;99.90;;;;;;5055282;28;20040;-59
2021/01/09 10:49:23;;;;;;;7.05;3.40;;;2.20;99.90;;;;;;5052887;28;20044;-61
2021/01/09 10:51:49;;;;;;;8.52;3.70;;;2.20;99.90;;;;;;5054317;28;20040;-59
2021/01/09 10:54:15;;;;;;;7.93;2.63;;;2.30;99.90;;;;;;5052714;28;20521;-62
2021/01/09 10:56:47;;;;;;;8.32;2.50;;;2.30;99.90;;;;;;5052109;28;20110;-61
2021/01/09 10:59:13;;;;;;;7.63;2.50;;;2.40;99.90;;;;;;5062360;28;20029;-61
2021/01/09 11:01:38;;;;;;;7.38;2.80;;;2.40;99.90;;;;;;5062769;28;20029;-60
2021/01/09 11:04:05;;;;;;;8.40;2.85;;;2.60;99.90;;;;;;5059026;28;20404;-60
2021/01/09 11:06:30;;;;;;;12.68;4.30;;;2.90;99.90;;;;;;5061438;28;20119;-58
2021/01/09 11:08:56;;;;;;;11.02;3.35;;;3.30;99.90;;;;;;5055271;28;20453;-60
2021/01/09 11:11:21;;;;;;;7.10;2.75;;;3.50;99.90;;;;;;5064972;28;20457;-60
2021/01/09 11:13:47;;;;;;;10.68;2.03;;;3.70;99.90;;;;;;5062774;28;20032;-59
2021/01/09 11:16:22;;;;;;;6.00;2.15;;;3.80;99.90;;;;;;5058405;28;20150;-62
2021/01/09 11:18:48;;;;;;;12.85;1.73;;;3.80;99.90;;;;;;5059461;28;20033;-61
2021/01/09 11:21:14;;;;;;;7.97;2.08;;;3.70;99.90;;;;;;5057892;23;20128;-66
2021/01/09 11:23:44;;;;;;;5.35;1.75;;;3.60;99.90;;;;;;5038926;28;20118;-66
2021/01/09 11:26:11;;;;;;;6.18;1.80;;;3.70;99.90;;;;;;5036902;28;20048;-66
2021/01/09 11:28:36;;;;;;;9.70;1.95;;;3.90;99.90;;;;;;5040645;28;20055;-71
2021/01/09 11:31:02;;;;;;;5.85;2.17;;;4.20;99.90;;;;;;5026668;28;20049;-67
2021/01/09 11:33:27;;;;;;;6.68;1.30;;;4.60;99.90;;;;;;5015086;28;20057;-66
2021/01/09 11:35:53;;;;;;;8.25;1.30;;;4.80;99.90;;;;;;5019790;28;20033;-67
2021/01/09 11:38:20;;;;;;;7.05;1.05;;;4.80;99.90;;;;;;5021821;28;20033;-67
2021/01/09 11:40:47;;;;;;;10.10;1.98;;;4.70;99.90;;;;;;5020751;28;20482;-67
2021/01/09 11:43:12;;;;;;;11.90;2.42;;;4.60;99.90;;;;;;5020044;28;20042;-67
2021/01/09 11:45:38;;;;;;;8.68;1.00;;;4.60;99.90;;;;;;5017698;28;20043;-66
2021/01/09 11:48:05;;;;;;;5.22;1.58;;;4.70;99.90;;;;;;5017129;28;20117;-67
2021/01/09 11:50:31;;;;;;;3.47;0.88;;;4.70;99.90;;;;;;5020468;28;20141;-67
2021/01/09 11:52:56;;;;;;;8.02;1.80;;;4.80;99.90;;;;;;5013150;28;20561;-66
2021/01/09 11:55:22;;;;;;;1.55;0.70;;;4.80;99.90;;;;;;5021436;28;20525;-66
2021/01/09 11:57:47;;;;;;;5.97;0.95;;;4.80;99.90;;;;;;5027249;28;20030;-67
2021/01/09 12:00:13;;;;;;;2.95;0.93;;;4.80;99.90;;;;;;5015211;28;20045;-67
2021/01/09 12:02:39;;;;;;;6.57;1.42;;;4.90;99.90;;;;;;5038234;28;20116;-66
2021/01/09 12:05:06;;;;;;;3.88;1.25;;;4.90;99.90;;;;;;5038228;28;20129;-66
2021/01/09 12:07:32;;;;;;;4.80;1.10;;;5.00;99.90;;;;;;5015639;28;20054;-66
2021/01/09 12:09:57;;;;;;;5.47;1.10;;;5.00;99.90;;;;;;5021350;28;20068;-66
2021/01/09 12:12:23;;;;;;;7.25;1.77;;;5.00;99.90;;;;;;5016010;28;20029;-66
2021/01/09 12:14:48;;;;;;;3.92;0.88;;;5.10;99.90;;;;;;5016120;28;20593;-66
2021/01/09 12:17:14;;;;;;;3.42;0.85;;;5.20;99.90;;;;;;5019819;28;20037;-67
2021/01/09 12:19:39;;;;;;;6.03;1.13;;;5.20;99.90;;;;;;5018764;28;20532;-66
2021/01/09 12:22:05;;;;;;;3.03;0.75;;;5.00;99.90;;;;;;5016245;28;20037;-66
2021/01/09 12:24:30;;;;;;;3.97;1.00;;;4.90;99.90;;;;;;5019582;28;20092;-67
2021/01/09 12:26:56;;;;;;;8.38;1.27;;;4.70;99.90;;;;;;5020784;28;20034;-66
2021/01/09 12:29:22;;;;;;;10.90;1.60;;;4.60;99.90;;;;;;5016607;28;20100;-66
2021/01/09 12:31:48;;;;;;;6.10;1.42;;;4.40;99.90;;;;;;5017819;28;20030;-67
2021/01/09 12:34:17;;;;;;;5.28;0.95;;;4.30;99.90;;;;;;5019203;28;20026;-66
2021/01/09 12:36:46;;;;;;;5.25;0.80;;;4.10;99.90;;;;;;5025059;28;20068;-66
2021/01/09 12:39:12;;;;;;;5.38;1.30;;;4.10;99.90;;;;;;5017115;28;20037;-67
2021/01/09 12:41:39;;;;;;;8.80;1.00;;;4.00;99.90;;;;;;5017425;28;20372;-67
2021/01/09 12:47:46;;;;;;;3.22;1.20;;;4.00;99.90;;;;;;4999699;28;20052;-66
2021/01/09 12:50:12;;;;;;;2.83;1.00;;;3.90;99.90;;;;;;5013794;28;20037;-67
2021/01/09 12:52:37;;;;;;;7.57;0.95;;;4.00;99.90;;;;;;5016763;28;20444;-67
2021/01/09 12:55:03;;;;;;;5.85;0.75;;;4.00;99.90;;;;;;5024628;28;20022;-66